Portada
METAR-TAF:

METAR-TAF

Aeropuertos :

Jark, Irán

latitud: 29-15-34N, longitud: 50-19-24E, altitud: 5 m

Observación

El informe se hizo hace 11 horas y 15 minutos, a las 15:00 UTC
Viento 16 kt del noroeste
Temperatura 22°C
Humedad 60%
Presión 1016 hPa
Visibilidad 10 km o más
sin nubes por debajo de 1500 m y sin presencia de cumulonimbus.

METAR: OIBQ 241500Z 32016KT CAVOK 22/14 Q1016

Hora: 05:45 (02:15 UTC)


TAF: falta

Observaciones y pronósticos meteorológicos de más de 4000 aeropuertos (mensajes METAR y TAF).

Los puntos amarillos y rojos representan las estaciones disponibles.

Ponga el ratón en el punto deseado para ver el nombre de la estación.

Haga clic para ver las observaciones y los pronósticos meteorológicos.

Para cambiar el mapa : haga clic en los botones verdes con una cruz de color negro para hacer un zoom, en el botón verde con un guión para alejar o en las flechas verdes para mapas adyacentes.


METAR-TAF: